Time;durP1;ratioP1;P1;durP2;ratioP2;P2;SDS_P1;SDS_P2;PMS_P1;PMS_P2;Temp;Humidity;BMP_temperature;BMP_pressure;BME280_temperature;BME280_humidity;BME280_pressure;Samples;Min_cycle;Max_cycle;Signal;HPM_P1;HPM_P2
2021/03/30 00:02:06;;;;;;;18.63;10.18;;;;;;;10.59;57.14;101913.41;5035395;28;20034;-83
2021/03/30 00:04:34;;;;;;;17.80;9.88;;;;;;;10.57;57.35;101915.22;5027793;28;20054;-89
2021/03/30 00:07:00;;;;;;;20.83;10.45;;;;;;;10.57;57.27;101907.28;5034567;28;20057;-87
2021/03/30 00:09:26;;;;;;;18.48;10.35;;;;;;;10.58;57.52;101914.31;5017834;28;20042;-81
2021/03/30 00:11:53;;;;;;;20.05;9.52;;;;;;;10.55;57.50;101915.25;5035655;28;20054;-79
2021/03/30 00:14:19;;;;;;;19.10;10.02;;;;;;;10.55;57.61;101915.25;5023479;28;20112;-80
2021/03/30 00:16:45;;;;;;;18.17;9.88;;;;;;;10.52;57.65;101917.13;5031686;28;20073;-82
2021/03/30 00:19:11;;;;;;;14.07;9.57;;;;;;;10.49;57.61;101915.41;5034673;28;20143;-80
2021/03/30 00:21:37;;;;;;;20.27;10.27;;;;;;;10.44;57.88;101911.09;5011455;28;20050;-79
2021/03/30 00:24:05;;;;;;;18.85;10.38;;;;;;;10.39;58.16;101915.66;5021654;28;20472;-82
2021/03/30 00:26:41;;;;;;;15.20;9.73;;;;;;;10.32;58.56;101914.03;5019456;28;20058;-79
2021/03/30 00:29:07;;;;;;;16.33;9.20;;;;;;;10.26;58.82;101917.66;5011029;28;20241;-80
2021/03/30 00:31:34;;;;;;;16.42;9.05;;;;;;;10.10;59.31;101908.28;5024027;28;20050;-80
2021/03/30 00:34:00;;;;;;;15.05;8.90;;;;;;;9.89;60.22;101922.84;5009728;28;20122;-80
2021/03/30 00:36:26;;;;;;;15.70;8.82;;;;;;;9.69;60.89;101917.06;5023879;28;20087;-79
2021/03/30 00:38:55;;;;;;;17.45;8.68;;;;;;;9.63;60.92;101911.88;5025031;28;20058;-79
2021/03/30 00:41:24;;;;;;;21.83;8.80;;;;;;;9.57;61.32;101910.22;5028806;28;20058;-79
2021/03/30 00:43:50;;;;;;;13.82;7.80;;;;;;;9.58;61.57;101913.75;5024344;28;20141;-82
2021/03/30 00:46:20;;;;;;;13.75;8.15;;;;;;;9.59;61.31;101920.78;5020278;28;20065;-81
2021/03/30 00:48:48;;;;;;;15.07;7.97;;;;;;;9.60;61.59;101919.88;5031735;28;20047;-78
2021/03/30 00:51:18;;;;;;;16.17;8.10;;;;;;;9.60;61.04;101915.44;5028888;28;20054;-80
2021/03/30 00:53:45;;;;;;;14.90;8.20;;;;;;;9.59;61.33;101916.38;5025717;28;20094;-83
2021/03/30 00:56:12;;;;;;;15.25;8.10;;;;;;;9.55;61.15;101919.97;5024675;28;20057;-80
2021/03/30 00:58:39;;;;;;;12.68;7.68;;;;;;;9.58;61.44;101921.69;5031496;28;20481;-81
2021/03/30 01:01:05;;;;;;;14.82;7.65;;;;;;;9.58;61.12;101911.97;5009244;28;20046;-86
2021/03/30 01:03:31;;;;;;;15.30;7.20;;;;;;;9.60;60.61;101922.53;5023343;28;20068;-80
2021/03/30 01:05:57;;;;;;;17.02;7.43;;;;;;;9.62;60.50;101923.34;5021400;28;20133;-81
2021/03/30 01:08:47;;;;;;;14.45;7.10;;;;;;;9.64;60.37;101921.56;5008520;28;20046;-83
2021/03/30 01:11:34;;;;;;;13.40;6.97;;;;;;;9.66;60.44;101922.41;5031098;28;20053;-83
2021/03/30 01:14:29;;;;;;;14.52;7.40;;;;;;;9.63;60.29;101919.81;5021835;28;20089;-87
2021/03/30 01:17:13;;;;;;;15.27;6.78;;;;;;;9.62;60.40;101918.06;5017873;28;20042;-80
2021/03/30 01:20:16;;;;;;;15.40;7.75;;;;;;;9.57;60.62;101919.94;5024975;28;20076;-79
2021/03/30 01:22:45;;;;;;;15.07;7.07;;;;;;;9.54;60.64;101920.88;5027353;28;20117;-81
2021/03/30 01:25:11;;;;;;;12.73;7.03;;;;;;;9.49;60.64;101925.34;5016439;28;20102;-85
2021/03/30 01:27:43;;;;;;;13.85;7.57;;;;;;;9.43;61.09;101915.78;5033854;28;20041;-80
2021/03/30 01:30:21;;;;;;;12.43;7.07;;;;;;;9.44;61.25;101932.53;5031358;28;20066;-80
2021/03/30 01:33:02;;;;;;;11.23;7.13;;;;;;;9.44;61.36;101922.78;5029112;28;20053;-81
2021/03/30 01:35:30;;;;;;;14.50;7.68;;;;;;;9.46;61.13;101922.75;5029968;28;20084;-80
2021/03/30 01:37:57;;;;;;;12.18;6.90;;;;;;;9.37;61.50;101928.22;5032719;28;20046;-86
2021/03/30 01:40:26;;;;;;;15.35;7.35;;;;;;;9.25;61.54;101925.81;5032001;28;20061;-80
2021/03/30 01:42:53;;;;;;;10.57;6.70;;;;;;;9.13;61.89;101929.50;5034321;28;20050;-79
2021/03/30 01:45:22;;;;;;;13.95;7.95;;;;;;;9.05;63.04;101928.78;5032819;28;20077;-84
2021/03/30 01:47:51;;;;;;;11.98;6.45;;;;;;;9.00;63.04;101925.31;5026076;28;20038;-83
2021/03/30 01:50:18;;;;;;;12.45;6.88;;;;;;;8.97;63.34;101928.03;5030346;28;20084;-82
2021/03/30 01:52:45;;;;;;;11.88;6.70;;;;;;;8.89;63.58;101914.94;5033719;28;20054;-85
2021/03/30 01:55:16;;;;;;;13.85;6.45;;;;;;;8.81;63.20;101916.84;5039677;28;20041;-81
2021/03/30 01:57:47;;;;;;;12.02;6.72;;;;;;;8.74;63.88;101918.69;5010314;28;20050;-87
2021/03/30 02:00:15;;;;;;;11.60;6.65;;;;;;;8.72;64.22;101916.97;5036761;28;20073;-80
2021/03/30 02:02:43;;;;;;;11.45;6.13;;;;;;;8.72;64.12;101917.84;5042267;28;20073;-80
2021/03/30 02:05:10;;;;;;;10.52;6.30;;;;;;;8.69;64.04;101912.59;5030802;28;20048;-86
2021/03/30 02:07:37;;;;;;;13.63;7.05;;;;;;;8.67;63.55;101922.31;5031514;28;20102;-85
2021/03/30 02:10:10;;;;;;;13.27;6.65;;;;;;;8.65;64.08;101924.13;5029221;28;20077;-84
2021/03/30 02:12:43;;;;;;;13.80;6.82;;;;;;;8.61;64.16;101914.50;5031804;28;20056;-81
2021/03/30 02:15:14;;;;;;;10.30;6.70;;;;;;;8.62;64.13;101910.97;5025591;28;20078;-87
2021/03/30 02:17:54;;;;;;;11.50;6.53;;;;;;;8.60;64.15;101918.03;5032169;28;20057;-81
2021/03/30 02:20:29;;;;;;;17.02;6.85;;;;;;;8.51;64.61;101920.78;5012390;28;20091;-86
2021/03/30 02:23:22;;;;;;;11.68;6.78;;;;;;;8.48;65.05;101918.22;5030188;28;20058;-82
2021/03/30 02:26:02;;;;;;;16.10;6.85;;;;;;;8.48;64.96;101912.94;5029637;28;20050;-79
2021/03/30 02:29:14;;;;;;;11.25;6.70;;;;;;;8.46;64.43;101909.44;5029732;28;20070;-86
2021/03/30 02:31:27;;;;;;;10.30;6.32;;;;;;;8.44;65.21;101912.09;5029570;28;20075;-84
2021/03/30 02:33:55;;;;;;;9.40;6.15;;;;;;;8.35;65.24;101909.56;5035576;28;20061;-80
2021/03/30 02:36:26;;;;;;;12.02;6.43;;;;;;;8.32;65.69;101914.03;5028896;28;20066;-85
2021/03/30 02:38:54;;;;;;;;;;;;;;;8.31;65.53;101915.75;5030638;28;20069;-79
2021/03/30 02:41:21;;;;;;;11.20;6.45;;;;;;;8.22;65.88;101907.06;5029606;28;19917;-86
2021/03/30 02:43:49;;;;;;;11.80;6.65;;;;;;;8.21;65.85;101907.97;5038270;28;20033;-81
2021/03/30 02:46:18;;;;;;;16.23;6.50;;;;;;;8.20;65.73;101906.22;5034652;28;20050;-80
2021/03/30 02:48:45;;;;;;;10.75;6.93;;;;;;;8.19;66.07;101920.31;5034089;28;20053;-84
2021/03/30 02:51:11;;;;;;;13.13;6.68;;;;;;;8.16;65.52;101915.09;5021589;28;20050;-79
2021/03/30 02:53:38;;;;;;;11.80;6.35;;;;;;;8.16;65.56;101923.00;5035728;28;20113;-79
2021/03/30 02:56:06;;;;;;;13.50;6.60;;;;;;;8.11;65.53;101920.41;5017543;28;20054;-79
2021/03/30 02:58:33;;;;;;;9.63;6.30;;;;;;;8.08;65.51;101918.69;5036058;28;20113;-81
2021/03/30 03:01:00;;;;;;;9.30;6.20;;;;;;;8.11;66.06;101915.13;4996355;28;20074;-79
2021/03/30 03:03:31;;;;;;;11.77;6.95;;;;;;;8.18;65.67;101923.88;5011227;28;20062;-79
2021/03/30 03:05:59;;;;;;;13.88;6.55;;;;;;;8.18;65.73;101918.59;5033084;28;20060;-82
2021/03/30 03:08:25;;;;;;;13.45;6.55;;;;;;;8.19;65.78;101920.31;5032447;28;20050;-86
2021/03/30 03:10:53;;;;;;;13.55;6.55;;;;;;;8.14;65.62;101912.47;5029873;28;20073;-81
2021/03/30 03:13:20;;;;;;;14.48;7.20;;;;;;;8.04;65.97;101916.09;5018080;28;20064;-80
2021/03/30 03:15:46;;;;;;;12.05;6.38;;;;;;;7.97;66.57;101914.44;5032881;28;20053;-80
2021/03/30 03:18:15;;;;;;;13.65;7.30;;;;;;;7.90;66.23;101918.91;5032354;28;20221;-78
2021/03/30 03:20:45;;;;;;;11.98;6.75;;;;;;;7.82;66.71;101923.41;5030964;28;20096;-84
2021/03/30 03:23:12;;;;;;;;;;;;;;;7.86;67.21;101925.13;5045100;28;20053;-81
2021/03/30 03:25:38;;;;;;;11.07;6.35;;;;;;;7.84;67.16;101919.00;5033194;28;19941;-79
2021/03/30 03:28:05;;;;;;;12.05;6.75;;;;;;;7.83;66.80;101927.78;5032410;28;20354;-81
2021/03/30 03:30:34;;;;;;;12.25;6.63;;;;;;;7.83;66.85;101935.72;5028150;28;20073;-81
2021/03/30 03:33:08;;;;;;;14.80;7.38;;;;;;;7.84;67.04;101940.09;5029295;28;20109;-80
2021/03/30 03:35:34;;;;;;;14.18;6.85;;;;;;;7.86;66.97;101937.44;5025767;28;20037;-80
2021/03/30 03:38:02;;;;;;;15.70;7.28;;;;;;;7.83;67.06;101932.19;5040172;28;20183;-79
2021/03/30 03:40:29;;;;;;;12.30;7.00;;;;;;;7.80;66.93;101935.72;5030075;28;20072;-82
2021/03/30 03:42:55;;;;;;;11.13;7.43;;;;;;;7.78;67.23;101939.28;5022441;28;20117;-81
2021/03/30 03:45:23;;;;;;;13.13;7.25;;;;;;;7.77;67.66;101933.13;5026980;28;20113;-80
2021/03/30 03:47:50;;;;;;;13.32;7.53;;;;;;;7.74;67.35;101927.88;5016013;28;20079;-79
2021/03/30 03:50:16;;;;;;;12.52;7.63;;;;;;;7.71;67.65;101939.31;5028251;28;20045;-79
2021/03/30 03:52:45;;;;;;;11.70;7.03;;;;;;;7.72;67.74;101934.94;5021443;28;20084;-78
2021/03/30 03:55:15;;;;;;;11.40;7.43;;;;;;;7.72;67.43;101935.81;5015229;28;20081;-80
2021/03/30 03:57:51;;;;;;;15.30;7.18;;;;;;;7.74;67.37;101939.28;5025947;28;20073;-79
2021/03/30 04:00:20;;;;;;;12.93;7.00;;;;;;;7.72;66.86;101938.44;5010163;28;20050;-78
2021/03/30 04:02:52;;;;;;;10.93;7.57;;;;;;;7.60;67.69;101929.78;5030726;28;20050;-79
2021/03/30 04:05:21;;;;;;;12.70;7.53;;;;;;;7.55;67.72;101932.50;5004140;28;20056;-79
2021/03/30 04:08:10;;;;;;;14.85;7.18;;;;;;;7.56;68.22;101943.88;5031558;28;20077;-79
2021/03/30 04:10:41;;;;;;;15.13;7.53;;;;;;;7.53;68.20;101946.56;5031360;28;20053;-80
2021/03/30 04:13:08;;;;;;;11.48;7.35;;;;;;;7.58;67.93;101947.38;5006250;28;20140;-81
2021/03/30 04:15:34;;;;;;;14.15;7.05;;;;;;;7.60;68.04;101951.75;5003143;28;20129;-79
2021/03/30 04:18:01;;;;;;;13.00;7.60;;;;;;;7.58;67.87;101950.88;5012023;28;20164;-79
2021/03/30 04:20:27;;;;;;;12.38;6.93;;;;;;;7.54;68.16;101951.84;5020593;28;20050;-79
2021/03/30 04:22:58;;;;;;;12.07;6.78;;;;;;;7.55;68.35;101952.72;5024477;28;20057;-79
2021/03/30 04:25:25;;;;;;;17.33;7.22;;;;;;;7.50;68.42;101952.75;5001356;28;20062;-80
2021/03/30 04:27:52;;;;;;;12.27;7.07;;;;;;;7.46;67.97;101950.16;5013809;28;20080;-82
2021/03/30 04:30:19;;;;;;;13.60;7.72;;;;;;;7.40;68.63;101945.78;5026049;28;20500;-83
2021/03/30 04:32:46;;;;;;;10.90;7.13;;;;;;;7.34;68.82;101953.78;5020372;28;20050;-79
2021/03/30 04:35:30;;;;;;;12.80;7.63;;;;;;;7.30;69.05;101952.91;5023574;28;20049;-79
2021/03/30 04:37:56;;;;;;;13.82;9.00;;;;;;;7.24;69.50;101954.75;5007157;28;20085;-83
2021/03/30 04:40:23;;;;;;;10.02;7.43;;;;;;;7.18;69.92;101952.16;5014020;28;20057;-79
2021/03/30 04:42:49;;;;;;;11.93;7.55;;;;;;;7.18;69.58;101958.31;5019376;28;20053;-80
2021/03/30 04:45:16;;;;;;;15.75;7.95;;;;;;;7.14;70.13;101964.47;5017635;28;20206;-79
2021/03/30 04:47:42;;;;;;;14.10;7.57;;;;;;;7.15;69.56;101962.72;5027162;28;20085;-79
2021/03/30 04:50:08;;;;;;;14.00;7.97;;;;;;;7.13;69.79;101965.34;5029386;28;20118;-79
2021/03/30 04:52:36;;;;;;;12.43;7.50;;;;;;;7.10;70.07;101962.75;5027937;28;20058;-78
2021/03/30 04:55:06;;;;;;;13.05;7.13;;;;;;;7.07;70.11;101970.69;5011141;28;20162;-78
2021/03/30 04:57:33;;;;;;;13.70;7.40;;;;;;;7.07;70.23;101975.09;5003380;28;20042;-79
2021/03/30 04:59:59;;;;;;;13.02;7.80;;;;;;;7.04;70.15;101987.38;5018559;28;20440;-79
2021/03/30 05:02:25;;;;;;;14.35;7.97;;;;;;;7.02;70.49;101983.00;5010165;28;20062;-79
2021/03/30 05:04:51;;;;;;;13.18;7.13;;;;;;;6.98;70.04;101984.78;5018969;28;20053;-78
2021/03/30 05:07:17;;;;;;;15.18;7.78;;;;;;;6.98;70.25;101991.81;5019973;28;20117;-79
2021/03/30 05:09:43;;;;;;;11.65;7.63;;;;;;;6.96;70.46;101983.03;5019457;28;20149;-79
2021/03/30 05:12:10;;;;;;;12.40;7.57;;;;;;;6.92;70.39;101982.22;5035316;28;20081;-79
2021/03/30 05:14:36;;;;;;;11.95;7.28;;;;;;;6.88;70.42;101984.88;5015546;28;20069;-80
2021/03/30 05:17:02;;;;;;;11.73;7.68;;;;;;;6.85;70.86;101979.59;5024304;28;20117;-78
2021/03/30 05:19:30;;;;;;;13.23;7.40;;;;;;;6.85;71.00;101982.25;5006920;28;20077;-78
2021/03/30 05:21:56;;;;;;;14.48;7.40;;;;;;;6.87;70.87;101991.88;5004653;28;20090;-79
2021/03/30 05:24:23;;;;;;;13.25;7.72;;;;;;;6.86;70.47;101994.53;5014345;28;20516;-78
2021/03/30 05:26:49;;;;;;;11.70;7.22;;;;;;;6.88;70.74;101998.03;5015229;28;20132;-78
2021/03/30 05:29:15;;;;;;;16.90;7.82;;;;;;;6.87;70.42;101996.28;5019789;28;20050;-78
2021/03/30 05:31:43;;;;;;;12.30;8.10;;;;;;;6.91;70.55;102001.53;5027548;28;20050;-78
2021/03/30 05:34:09;;;;;;;10.55;7.25;;;;;;;6.88;70.19;101995.41;5020956;28;20113;-79
2021/03/30 05:36:35;;;;;;;14.35;7.25;;;;;;;6.89;70.99;101998.03;5024555;28;20144;-78
2021/03/30 05:39:02;;;;;;;10.10;7.07;;;;;;;6.91;71.22;102008.56;5027297;28;20049;-79
2021/03/30 05:41:29;;;;;;;11.63;7.55;;;;;;;6.96;70.49;102001.47;5024350;28;20046;-80
2021/03/30 05:43:55;;;;;;;13.90;7.30;;;;;;;7.04;70.45;102005.81;5004041;28;20089;-77
2021/03/30 05:46:22;;;;;;;11.15;7.03;;;;;;;7.07;70.26;102006.69;5003680;28;20041;-78
2021/03/30 05:48:51;;;;;;;14.40;7.20;;;;;;;7.07;70.19;102004.94;5013922;28;20050;-79
2021/03/30 05:51:20;;;;;;;12.23;7.53;;;;;;;7.13;70.41;102004.88;5030613;28;20050;-80
2021/03/30 05:53:54;;;;;;;12.10;7.22;;;;;;;7.19;70.28;102018.00;5024482;28;20095;-78
2021/03/30 05:56:22;;;;;;;10.00;6.93;;;;;;;7.24;69.63;102013.56;5030761;28;20086;-79
2021/03/30 05:58:50;;;;;;;13.10;7.20;;;;;;;7.32;69.89;102018.78;5028095;28;20059;-79
2021/03/30 06:01:18;;;;;;;12.27;7.22;;;;;;;7.42;69.72;102012.53;5027595;28;20046;-78
2021/03/30 06:03:44;;;;;;;11.68;7.22;;;;;;;7.50;69.17;102012.50;5028551;28;20110;-79
2021/03/30 06:06:19;;;;;;;12.10;6.82;;;;;;;7.54;68.52;102020.38;5012073;28;20173;-78
2021/03/30 06:08:45;;;;;;;14.35;7.20;;;;;;;7.60;68.45;102020.31;5034544;28;20097;-78
2021/03/30 06:11:12;;;;;;;9.63;6.30;;;;;;;7.64;68.57;102019.38;5029606;28;20053;-77
2021/03/30 06:13:45;;;;;;;10.45;6.90;;;;;;;7.73;68.78;102023.69;5014612;28;20086;-77
2021/03/30 06:16:36;;;;;;;12.80;7.45;;;;;;;7.83;67.83;102024.50;5011396;28;20058;-77
2021/03/30 06:19:06;;;;;;;11.00;6.53;;;;;;;7.90;67.52;102021.75;5024111;28;20116;-78
2021/03/30 06:21:39;;;;;;;25.55;14.25;;;;;;;8.00;67.26;102027.84;5034262;28;20053;-78
2021/03/30 06:24:21;;;;;;;11.30;7.10;;;;;;;8.10;67.13;102026.84;5034499;28;20109;-78
2021/03/30 06:26:52;;;;;;;12.43;6.82;;;;;;;8.20;66.41;102030.25;5033112;28;20098;-79
2021/03/30 06:29:26;;;;;;;12.93;7.47;;;;;;;8.27;65.86;102024.03;5032106;28;20101;-82
2021/03/30 06:31:56;;;;;;;13.40;7.68;;;;;;;8.35;65.96;102032.75;5027509;28;20153;-79
2021/03/30 06:34:26;;;;;;;12.55;7.18;;;;;;;8.50;64.33;102032.56;5038268;28;20050;-78
2021/03/30 06:36:54;;;;;;;17.38;7.53;;;;;;;8.59;64.64;102034.22;5026060;28;20050;-78
2021/03/30 06:39:35;;;;;;;12.60;6.72;;;;;;;8.68;63.30;102034.97;5008247;28;20062;-79
2021/03/30 06:42:11;;;;;;;12.20;6.95;;;;;;;8.82;63.33;102029.50;5015894;28;20134;-78
2021/03/30 06:44:39;;;;;;;13.40;6.88;;;;;;;9.11;62.08;102037.03;5022504;28;20046;-81
2021/03/30 06:47:14;;;;;;;11.00;6.78;;;;;;;10.40;58.71;102039.19;5006752;28;20070;-79
2021/03/30 06:49:52;;;;;;;10.60;6.45;;;;;;;12.37;54.05;102041.50;5004643;28;20042;-81
2021/03/30 06:52:21;;;;;;;10.65;6.88;;;;;;;13.96;48.42;102030.28;5031106;28;20053;-79
2021/03/30 06:54:58;;;;;;;11.95;6.70;;;;;;;15.31;44.60;102034.06;5019192;28;20076;-79
2021/03/30 06:57:44;;;;;;;10.75;6.53;;;;;;;16.26;41.27;102031.78;5024989;28;20054;-84
2021/03/30 07:00:26;;;;;;;10.68;6.40;;;;;;;16.68;39.50;102023.66;5033968;28;20046;-80
2021/03/30 07:02:54;;;;;;;13.02;6.70;;;;;;;16.48;39.16;102010.28;5027639;28;20058;-84
2021/03/30 07:05:29;;;;;;;11.30;6.55;;;;;;;16.64;39.97;102031.88;5022543;28;20101;-82
2021/03/30 07:08:02;;;;;;;12.20;6.85;;;;;;;17.09;38.78;102027.03;5021224;28;20081;-81
2021/03/30 07:10:36;;;;;;;13.23;6.10;;;;;;;17.61;38.16;102031.63;5008587;28;20052;-80
2021/03/30 07:13:08;;;;;;;13.85;6.13;;;;;;;17.70;37.92;102029.38;5013101;28;20452;-80
2021/03/30 07:16:01;;;;;;;;;;;;;;;17.32;37.91;102030.38;5016088;28;20136;-80
2021/03/30 07:18:34;;;;;;;13.20;5.88;;;;;;;17.62;37.46;102028.88;5023714;28;19992;-81
2021/03/30 07:21:05;;;;;;;13.02;6.25;;;;;;;18.26;36.48;102030.06;5021356;28;20126;-80
2021/03/30 07:23:35;;;;;;;8.77;6.03;;;;;;;18.78;35.18;102022.75;5025201;28;20042;-80
2021/03/30 07:26:25;;;;;;;8.75;5.60;;;;;;;19.40;34.10;102021.00;5016122;28;20093;-82
2021/03/30 07:29:00;;;;;;;12.68;5.55;;;;;;;20.17;33.00;102020.88;5014287;28;20070;-78
2021/03/30 07:31:37;;;;;;;10.90;5.88;;;;;;;20.44;32.13;102029.13;5021619;28;20061;-79
2021/03/30 07:34:10;;;;;;;10.73;5.72;;;;;;;21.01;31.00;102032.63;5018010;28;20093;-83
2021/03/30 07:36:47;;;;;;;14.60;6.32;;;;;;;20.91;30.48;102026.09;5021461;28;21584;-89
2021/03/30 07:39:17;;;;;;;9.95;5.65;;;;;;;20.88;29.96;102037.06;5016077;28;20077;-87
2021/03/30 07:41:45;;;;;;;8.30;5.97;;;;;;;20.57;30.91;102025.56;5015137;28;20142;-83
2021/03/30 07:44:13;;;;;;;8.88;5.60;;;;;;;20.99;30.40;102038.09;5015015;28;20414;-83
2021/03/30 07:46:41;;;;;;;8.52;6.05;;;;;;;21.17;29.92;102030.66;5012723;28;20055;-83
2021/03/30 07:49:10;;;;;;;16.15;7.05;;;;;;;20.89;30.18;102036.97;5015459;28;20060;-85
2021/03/30 07:51:42;;;;;;;11.05;6.38;;;;;;;21.24;30.32;102034.72;5017523;28;20450;-82
2021/03/30 07:54:15;;;;;;;12.30;6.13;;;;;;;21.96;29.48;102041.50;5005998;28;20330;-82
2021/03/30 07:56:41;;;;;;;11.70;5.93;;;;;;;22.40;28.00;102030.34;5013184;28;20065;-80
2021/03/30 07:59:46;;;;;;;10.27;6.30;;;;;;;22.26;27.61;102029.59;5017008;28;20161;-84
2021/03/30 08:02:20;;;;;;;12.73;6.60;;;;;;;22.03;28.10;102031.22;4998262;28;20053;-81
2021/03/30 08:05:00;;;;;;;16.70;6.68;;;;;;;21.47;29.41;102037.72;5017076;28;20077;-81
2021/03/30 08:07:49;;;;;;;11.40;6.50;;;;;;;21.30;29.26;102037.00;5001687;28;20093;-87
2021/03/30 08:10:27;;;;;;;14.02;6.70;;;;;;;21.70;29.06;102034.34;5013622;28;20062;-81
2021/03/30 08:13:34;;;;;;;11.88;6.28;;;;;;;21.70;28.45;102031.66;5013309;28;20081;-80
2021/03/30 08:16:06;;;;;;;9.20;5.78;;;;;;;21.96;28.30;102030.72;5013597;28;20057;-85
2021/03/30 08:18:39;;;;;;;10.13;6.07;;;;;;;21.57;28.43;102028.03;5011342;28;20453;-82
2021/03/30 08:21:14;;;;;;;10.00;6.40;;;;;;;21.73;28.07;102031.41;5016170;28;20105;-82
2021/03/30 08:23:53;;;;;;;15.63;6.63;;;;;;;21.84;28.13;102028.00;5025702;28;20058;-87
2021/03/30 08:26:46;;;;;;;8.75;5.88;;;;;;;22.53;28.03;102032.16;5035549;28;20073;-80
2021/03/30 08:29:34;;;;;;;11.45;6.63;;;;;;;22.82;26.52;102025.59;5029423;28;20060;-87
2021/03/30 08:32:01;;;;;;;12.23;7.28;;;;;;;22.63;26.89;102023.31;5025449;28;20117;-82
2021/03/30 08:34:39;;;;;;;7.70;6.03;;;;;;;22.72;27.73;102022.63;4993573;28;20537;-81
2021/03/30 08:37:13;;;;;;;12.77;6.63;;;;;;;22.85;26.41;102027.19;5016045;28;20041;-81
2021/03/30 08:39:41;;;;;;;8.98;6.40;;;;;;;22.93;26.17;102019.38;5009514;28;20069;-83
2021/03/30 08:42:11;;;;;;;11.05;6.57;;;;;;;22.37;26.76;102017.06;5018807;28;20101;-81
2021/03/30 08:44:42;;;;;;;12.60;6.63;;;;;;;22.25;26.84;102017.06;5019463;28;20113;-84
2021/03/30 08:47:34;;;;;;;14.05;7.25;;;;;;;21.52;28.28;102022.09;5031632;28;20121;-85
2021/03/30 08:50:19;;;;;;;14.82;7.47;;;;;;;20.32;30.44;102023.47;5027631;28;20052;-85
2021/03/30 08:52:46;;;;;;;12.90;7.50;;;;;;;19.70;33.02;102030.00;5024652;28;20082;-82
2021/03/30 08:55:13;;;;;;;12.60;6.72;;;;;;;19.18;33.62;102026.78;5017385;28;20041;-80
2021/03/30 08:57:47;;;;;;;11.00;7.00;;;;;;;18.55;33.38;102024.00;5014389;28;20549;-84
2021/03/30 09:00:34;;;;;;;13.77;7.35;;;;;;;17.79;35.14;102026.22;5002646;28;20069;-85
2021/03/30 09:03:04;;;;;;;12.10;7.43;;;;;;;17.37;36.30;102028.34;5019646;28;20046;-81
2021/03/30 09:05:40;;;;;;;10.75;7.10;;;;;;;17.09;37.62;102032.38;5001845;28;20116;-80
2021/03/30 09:08:10;;;;;;;12.38;6.97;;;;;;;16.84;38.17;102029.16;5003790;28;20057;-83
2021/03/30 09:10:37;;;;;;;13.40;8.07;;;;;;;16.64;39.46;102038.09;5019610;28;20065;-82
2021/03/30 09:13:42;;;;;;;12.55;7.15;;;;;;;16.53;40.57;102037.66;5019755;28;20053;-82
2021/03/30 09:16:09;;;;;;;13.68;7.03;;;;;;;16.45;40.58;102037.16;5026381;28;20116;-82
2021/03/30 09:18:37;;;;;;;12.88;6.90;;;;;;;16.41;41.95;102036.44;5013187;28;20073;-80
2021/03/30 09:21:14;;;;;;;12.25;6.72;;;;;;;16.34;41.85;102018.06;5021084;28;20069;-87
2021/03/30 09:23:45;;;;;;;14.15;6.95;;;;;;;16.34;41.92;102021.63;5013892;28;20071;-85
2021/03/30 09:26:13;;;;;;;15.13;6.60;;;;;;;16.41;42.12;102032.88;5025162;28;20053;-82
2021/03/30 09:28:42;;;;;;;11.18;6.93;;;;;;;16.39;39.97;102027.59;5027432;28;20046;-82
2021/03/30 09:31:10;;;;;;;10.85;5.97;;;;;;;16.52;39.20;102027.06;5023907;28;20142;-81
2021/03/30 09:33:36;;;;;;;14.57;6.75;;;;;;;16.56;39.69;102018.81;5027929;28;20050;-79
2021/03/30 09:36:10;;;;;;;15.15;7.30;;;;;;;16.60;37.94;102009.72;5024652;28;20068;-84
2021/03/30 09:38:54;;;;;;;16.08;6.82;;;;;;;16.72;39.29;102019.88;5024505;28;20050;-80
2021/03/30 09:41:40;;;;;;;15.18;7.85;;;;;;;16.79;38.61;102012.44;5022189;28;20096;-79
2021/03/30 09:44:10;;;;;;;11.60;6.72;;;;;;;16.88;38.28;102019.16;5024024;28;20046;-84
2021/03/30 09:46:46;;;;;;;12.93;6.97;;;;;;;17.02;38.26;102017.53;5014152;28;20519;-83
2021/03/30 09:49:20;;;;;;;13.20;7.75;;;;;;;17.05;37.96;101990.63;5025409;28;20045;-85
2021/03/30 09:51:49;;;;;;;11.88;7.20;;;;;;;17.27;37.81;102011.03;5007836;28;20047;-84
2021/03/30 09:54:37;;;;;;;12.70;7.30;;;;;;;17.22;37.35;101988.94;5003303;28;20045;-86
2021/03/30 09:57:14;;;;;;;11.10;6.88;;;;;;;17.31;37.49;101986.69;5017564;28;20544;-81
2021/03/30 09:59:48;;;;;;;13.15;6.75;;;;;;;17.49;38.60;102000.94;5013951;28;20662;-81
2021/03/30 10:02:16;;;;;;;13.45;7.25;;;;;;;17.54;37.13;102007.81;5008208;28;20054;-87
2021/03/30 10:04:43;;;;;;;11.73;6.55;;;;;;;17.61;37.81;101995.00;5027091;28;20069;-82
2021/03/30 10:07:17;;;;;;;16.02;7.65;;;;;;;17.69;38.44;101992.81;5011202;28;20073;-82
2021/03/30 10:10:01;;;;;;;13.70;6.97;;;;;;;17.81;37.58;101994.84;5017463;28;20294;-80
2021/03/30 10:12:35;;;;;;;15.40;7.40;;;;;;;17.91;36.99;101991.72;5019453;28;20109;-81
2021/03/30 10:15:03;;;;;;;16.25;7.60;;;;;;;18.01;37.56;101992.94;5015030;28;20145;-82
2021/03/30 10:17:31;;;;;;;18.30;7.22;;;;;;;18.09;37.23;101990.75;5016255;28;20387;-82
2021/03/30 10:19:59;;;;;;;17.20;7.15;;;;;;;18.20;37.71;101993.72;5010692;28;20080;-80
2021/03/30 10:22:34;;;;;;;15.80;7.28;;;;;;;18.36;37.88;101983.91;5013916;28;20081;-84
2021/03/30 10:25:15;;;;;;;12.45;6.57;;;;;;;18.49;37.14;101984.97;5012619;28;20069;-82
2021/03/30 10:28:00;;;;;;;14.70;7.00;;;;;;;18.56;36.19;101980.13;5002322;28;20080;-84
2021/03/30 10:30:44;;;;;;;12.90;7.28;;;;;;;18.64;36.27;101969.88;5017783;28;20134;-81
2021/03/30 10:33:19;;;;;;;14.48;6.93;;;;;;;18.76;36.75;101969.16;5014756;28;20145;-80
2021/03/30 10:35:46;;;;;;;13.90;7.10;;;;;;;18.86;36.35;101974.91;5010926;28;20087;-83
2021/03/30 10:38:12;;;;;;;16.30;6.93;;;;;;;18.97;35.46;101969.78;5005995;28;20116;-82
2021/03/30 10:40:40;;;;;;;13.65;7.43;;;;;;;19.04;35.33;101968.50;5009254;28;20460;-84
2021/03/30 10:43:33;;;;;;;17.35;7.53;;;;;;;19.18;35.30;101960.50;5012018;28;20077;-81
2021/03/30 10:45:59;;;;;;;12.27;6.78;;;;;;;19.27;34.34;101965.31;5006871;28;21551;-83
2021/03/30 10:48:26;;;;;;;14.63;7.03;;;;;;;19.35;34.50;101964.88;5021467;28;20053;-86
2021/03/30 10:50:56;;;;;;;13.95;7.45;;;;;;;19.45;34.86;101955.31;5013175;28;20058;-81
2021/03/30 10:53:24;;;;;;;13.93;7.63;;;;;;;19.61;34.33;101958.00;4998534;28;20054;-84
2021/03/30 10:55:51;;;;;;;13.63;7.60;;;;;;;19.73;34.19;101946.50;5018812;28;20053;-80
2021/03/30 10:58:18;;;;;;;10.48;7.00;;;;;;;19.80;34.35;101953.22;5022039;28;20054;-80
2021/03/30 11:00:44;;;;;;;13.30;7.75;;;;;;;19.88;34.87;101955.44;5023423;28;20089;-80
2021/03/30 11:03:30;;;;;;;15.60;7.55;;;;;;;19.91;33.66;101948.06;5024752;28;20122;-82
2021/03/30 11:05:56;;;;;;;11.27;6.82;;;;;;;19.91;33.73;101939.13;5017464;28;20053;-81
2021/03/30 11:08:23;;;;;;;13.73;7.22;;;;;;;20.05;33.35;101935.59;5028657;28;20053;-81
2021/03/30 11:10:49;;;;;;;17.88;8.73;;;;;;;20.07;31.18;101933.66;5007507;28;20054;-79
2021/03/30 11:13:15;;;;;;;19.13;8.00;;;;;;;20.11;30.73;101933.38;5032574;28;20081;-79
2021/03/30 11:15:41;;;;;;;11.93;7.10;;;;;;;20.15;30.66;101921.44;5024600;28;20461;-81
2021/03/30 11:18:33;;;;;;;19.55;8.13;;;;;;;20.33;30.57;101938.25;5018632;28;20044;-80
2021/03/30 11:20:59;;;;;;;13.98;7.30;;;;;;;20.47;30.92;101919.44;5014851;28;20054;-80
2021/03/30 11:23:25;;;;;;;15.63;6.95;;;;;;;20.63;31.29;101920.19;5014591;28;20045;-85
2021/03/30 11:25:52;;;;;;;12.75;6.93;;;;;;;20.73;30.19;101912.38;5020833;28;20064;-82
2021/03/30 11:28:18;;;;;;;14.02;7.82;;;;;;;20.86;31.29;101912.44;5020036;28;20046;-81
2021/03/30 11:30:59;;;;;;;15.35;7.78;;;;;;;20.94;31.21;101907.41;5019042;28;20480;-86
2021/03/30 11:33:31;;;;;;;10.63;6.85;;;;;;;21.10;30.54;101904.53;5015598;28;20077;-80
2021/03/30 11:36:11;;;;;;;14.18;7.10;;;;;;;21.24;30.18;101908.09;5013434;28;20145;-87
2021/03/30 11:38:37;;;;;;;12.85;7.45;;;;;;;21.32;26.99;101897.63;5022164;28;20049;-85
2021/03/30 11:41:03;;;;;;;11.05;6.32;;;;;;;21.44;27.13;101900.47;5018547;28;20045;-85
2021/03/30 11:43:30;;;;;;;14.13;6.57;;;;;;;21.52;26.32;101898.13;5004686;28;20054;-82